Kostas Dimakis — SY8782 — position and weather

sailwx.info

Track history (hours):
 
Tides and Currents Weather Stations Pressure Air Temp Water Temp Dewpoint Dewpoint Depression Visibility Wind Speed Wind Dir Waves Ship Positions

Kostas Dimakis

Last reported at 2018-Feb-23 19:22 UTC. Time now 2018-Feb-25 08:07 UTC.
Position N 37°40' E 023°43'.

Length 67 m; draft 3 m.

Type: Cargo ship. MMSI: 239279500.

Date/timePositionNaut miles runAvg speedWind from/ knotsBaromVisibWave heightAir tempDewpointWater temp
2018-Feb-23 19:22N 37°40' E 023°43'3 8.9
2018-Feb-23 19:00N 37°42' E 023°41'4 8.8
2018-Feb-23 18:30N 37°46' E 023°39'4 8.8
2018-Feb-23 18:00N 37°50' E 023°37'4 8.9
2018-Feb-23 17:30N 37°55' E 023°35'4 7.5
2018-Feb-23 17:00N 37°58' E 023°33'4 8.5
2018-Feb-23 16:30N 38°02' E 023°31'0 0.6
2018-Feb-23 16:00N 38°02' E 023°31'0 0.0
2018-Feb-23 15:30N 38°02' E 023°31'0 0.0
2018-Feb-23 15:00N 38°02' E 023°31'0 0.0
2018-Feb-23 14:30N 38°02' E 023°31'0 0.0
2018-Feb-23 14:00N 38°02' E 023°31'0 0.0
2018-Feb-23 13:30N 38°02' E 023°31'0 0.0
2018-Feb-23 13:00N 38°02' E 023°31'0 0.0
2018-Feb-23 12:30N 38°02' E 023°31'0 0.0
2018-Feb-23 12:00N 38°02' E 023°31'0 0.0
2018-Feb-23 11:30N 38°02' E 023°31'0 0.0
2018-Feb-23 11:00N 38°02' E 023°31'0 0.0
2018-Feb-23 10:30N 38°02' E 023°31'0 0.0
2018-Feb-23 10:00N 38°02' E 023°31'0 0.0
2018-Feb-23 09:30N 38°02' E 023°31'0 0.0
2018-Feb-23 09:00N 38°02' E 023°31'0 0.0
2018-Feb-23 08:30N 38°02' E 023°31'0 0.0
2018-Feb-23 08:00N 38°02' E 023°31'0 0.0
2018-Feb-23 07:30N 38°02' E 023°31'0 0.0
2018-Feb-23 07:00N 38°02' E 023°31'0 0.0
2018-Feb-23 06:30N 38°02' E 023°31'0 0.0
2018-Feb-23 06:00N 38°02' E 023°31'1 1.7
2018-Feb-23 05:30N 38°02' E 023°32'0 0.0
2018-Feb-23 05:01N 38°02' E 023°32'0 0.1
2018-Feb-23 04:30N 38°02' E 023°32'0 0.0
2018-Feb-23 03:58N 38°02' E 023°32'0 0.0
2018-Feb-23 03:30N 38°02' E 023°32'0 0.0
2018-Feb-23 03:00N 38°02' E 023°32'0 0.0
2018-Feb-23 02:31N 38°02' E 023°32'0 0.0
2018-Feb-23 02:01N 38°02' E 023°32'0 0.0
2018-Feb-23 01:30N 38°02' E 023°32'0 0.0
2018-Feb-23 01:00N 38°02' E 023°32'0 0.0
2018-Feb-23 00:31N 38°02' E 023°32'0 0.0
2018-Feb-23 00:00N 38°02' E 023°32'0 0.0
2018-Feb-22 23:31N 38°02' E 023°32'0 0.1
2018-Feb-22 23:00N 38°02' E 023°32'0 1.0
2018-Feb-22 22:31N 38°02' E 023°31'4 8.0
2018-Feb-22 22:00N 38°00' E 023°27'3 7.0
2018-Feb-22 21:31N 37°57' E 023°24'4 8.8
2018-Feb-22 21:00N 37°53' E 023°23'510.3
2018-Feb-22 20:30N 37°51' E 023°29'510.4
2018-Feb-22 20:00N 37°51' E 023°36'5 9.3
2018-Feb-22 19:30N 37°48' E 023°41'510.5
2018-Feb-22 19:00N 37°43' E 023°44'4 0.1
2018-Feb-20 18:40N 37°39' E 023°44'2 8.5
2018-Feb-20 18:23N 37°41' E 023°42'3 8.8
2018-Feb-20 18:00N 37°44' E 023°40'4 8.9
2018-Feb-20 17:30N 37°48' E 023°38'5 9.0
2018-Feb-20 17:00N 37°52' E 023°36'4 8.8
2018-Feb-20 16:30N 37°56' E 023°35'4 7.0
2018-Feb-20 16:00N 37°60' E 023°33'3 6.3
2018-Feb-20 15:31N 38°02' E 023°35'0 0.1
2018-Feb-20 15:00N 38°02' E 023°35'0 0.0
2018-Feb-20 14:30N 38°02' E 023°35'0 0.0
2018-Feb-20 14:00N 38°02' E 023°35'0 0.0
2018-Feb-20 13:30N 38°02' E 023°35'0 0.0
2018-Feb-20 13:00N 38°02' E 023°35'0 0.0
2018-Feb-20 12:30N 38°02' E 023°35'0 0.0
2018-Feb-20 12:00N 38°02' E 023°35'0 0.0
2018-Feb-20 11:30N 38°02' E 023°35'0 0.0
2018-Feb-20 11:00N 38°02' E 023°35'0 0.0
2018-Feb-20 10:30N 38°02' E 023°35'0 0.0
2018-Feb-20 10:00N 38°02' E 023°35'0 0.0
2018-Feb-20 09:29N 38°02' E 023°35'0 0.0
2018-Feb-20 09:00N 38°02' E 023°35'0 0.0
2018-Feb-20 08:30N 38°02' E 023°35'0 0.0
2018-Feb-20 07:59N 38°02' E 023°35'0 0.0
2018-Feb-20 07:30N 38°02' E 023°35'0 0.0
2018-Feb-20 06:53N 38°02' E 023°35'0 0.0
2018-Feb-20 06:28N 38°02' E 023°35'0 0.0
2018-Feb-20 05:59N 38°02' E 023°35'0 0.0
2018-Feb-20 05:30N 38°02' E 023°35'0 0.0
2018-Feb-20 05:00N 38°02' E 023°35'0 0.0
2018-Feb-20 04:30N 38°02' E 023°35'0 0.0
2018-Feb-20 04:00N 38°02' E 023°35'0 0.0
2018-Feb-20 03:30N 38°02' E 023°35'0 0.0
2018-Feb-20 03:00N 38°02' E 023°35'0 0.0
2018-Feb-20 02:30N 38°02' E 023°35'0 0.0
2018-Feb-20 02:00N 38°02' E 023°35'0 0.0
2018-Feb-20 01:27N 38°02' E 023°35'0 0.0
2018-Feb-20 01:00N 38°02' E 023°35'0 0.0
2018-Feb-20 00:30N 38°02' E 023°35'0 0.0
2018-Feb-20 00:00N 38°02' E 023°35'0 0.0
2018-Feb-19 23:30N 38°02' E 023°35'0 0.0
2018-Feb-19 23:00N 38°02' E 023°35'0 0.0
2018-Feb-19 22:30N 38°02' E 023°35'0 0.0
2018-Feb-19 21:59N 38°02' E 023°35'0 0.0
2018-Feb-19 21:30N 38°02' E 023°35'0 0.0
2018-Feb-19 21:00N 38°02' E 023°35'0 0.0
2018-Feb-19 20:30N 38°02' E 023°35'0 0.0
2018-Feb-19 20:00N 38°02' E 023°35'0 0.0
2018-Feb-19 19:30N 38°02' E 023°35'0 0.2
2018-Feb-19 19:00N 38°02' E 023°35'4 7.1
2018-Feb-19 18:31N 38°01' E 023°31'5 9.7
2018-Feb-19 18:01N 37°59' E 023°25'3 6.7
2018-Feb-19 17:30N 37°57' E 023°23'5 9.9
2018-Feb-19 17:00N 37°56' E 023°17'5 9.9
2018-Feb-19 16:30N 37°55' E 023°10'510.1
2018-Feb-19 16:00N 37°54' E 023°04'5 7.5
2018-Feb-19 15:19N 37°57' E 022°58'2 5.1
2018-Feb-19 15:00N 37°58' E 022°57'4 8.6
2018-Feb-19 14:30N 37°59' E 022°52'510.1
2018-Feb-19 13:59N 38°02' E 022°46'  
Track history (hours):
 
Tides and Currents Weather Stations Pressure Air Temp Water Temp Dewpoint Dewpoint Depression Visibility Wind Speed Wind Dir Waves Ship Positions

Kostas Dimakis

Last reported at 2018-Feb-23 19:22 UTC. Time now 2018-Feb-25 08:07 UTC.
Position N 37°40' E 023°43'.

Length 67 m; draft 3 m.

Type: Cargo ship. MMSI: 239279500.

Date/timePositionNaut miles runAvg speedWind from/ knotsBaromVisibWave heightAir tempDewpointWater temp
2018-Feb-23 19:22N 37°40' E 023°43'3 8.9
2018-Feb-23 19:00N 37°42' E 023°41'4 8.8
2018-Feb-23 18:30N 37°46' E 023°39'4 8.8
2018-Feb-23 18:00N 37°50' E 023°37'4 8.9
2018-Feb-23 17:30N 37°55' E 023°35'4 7.5
2018-Feb-23 17:00N 37°58' E 023°33'4 8.5
2018-Feb-23 16:30N 38°02' E 023°31'0 0.6
2018-Feb-23 16:00N 38°02' E 023°31'0 0.0
2018-Feb-23 15:30N 38°02' E 023°31'0 0.0
2018-Feb-23 15:00N 38°02' E 023°31'0 0.0
2018-Feb-23 14:30N 38°02' E 023°31'0 0.0
2018-Feb-23 14:00N 38°02' E 023°31'0 0.0
2018-Feb-23 13:30N 38°02' E 023°31'0 0.0
2018-Feb-23 13:00N 38°02' E 023°31'0 0.0
2018-Feb-23 12:30N 38°02' E 023°31'0 0.0
2018-Feb-23 12:00N 38°02' E 023°31'0 0.0
2018-Feb-23 11:30N 38°02' E 023°31'0 0.0
2018-Feb-23 11:00N 38°02' E 023°31'0 0.0
2018-Feb-23 10:30N 38°02' E 023°31'0 0.0
2018-Feb-23 10:00N 38°02' E 023°31'0 0.0
2018-Feb-23 09:30N 38°02' E 023°31'0 0.0
2018-Feb-23 09:00N 38°02' E 023°31'0 0.0
2018-Feb-23 08:30N 38°02' E 023°31'0 0.0
2018-Feb-23 08:00N 38°02' E 023°31'0 0.0
2018-Feb-23 07:30N 38°02' E 023°31'0 0.0
2018-Feb-23 07:00N 38°02' E 023°31'0 0.0
2018-Feb-23 06:30N 38°02' E 023°31'0 0.0
2018-Feb-23 06:00N 38°02' E 023°31'1 1.7
2018-Feb-23 05:30N 38°02' E 023°32'0 0.0
2018-Feb-23 05:01N 38°02' E 023°32'0 0.1
2018-Feb-23 04:30N 38°02' E 023°32'0 0.0
2018-Feb-23 03:58N 38°02' E 023°32'0 0.0
2018-Feb-23 03:30N 38°02' E 023°32'0 0.0
2018-Feb-23 03:00N 38°02' E 023°32'0 0.0
2018-Feb-23 02:31N 38°02' E 023°32'0 0.0
2018-Feb-23 02:01N 38°02' E 023°32'0 0.0
2018-Feb-23 01:30N 38°02' E 023°32'0 0.0
2018-Feb-23 01:00N 38°02' E 023°32'0 0.0
2018-Feb-23 00:31N 38°02' E 023°32'0 0.0
2018-Feb-23 00:00N 38°02' E 023°32'0 0.0
2018-Feb-22 23:31N 38°02' E 023°32'0 0.1
2018-Feb-22 23:00N 38°02' E 023°32'0 1.0
2018-Feb-22 22:31N 38°02' E 023°31'4 8.0
2018-Feb-22 22:00N 38°00' E 023°27'3 7.0
2018-Feb-22 21:31N 37°57' E 023°24'4 8.8
2018-Feb-22 21:00N 37°53' E 023°23'510.3
2018-Feb-22 20:30N 37°51' E 023°29'510.4
2018-Feb-22 20:00N 37°51' E 023°36'5 9.3
2018-Feb-22 19:30N 37°48' E 023°41'510.5
2018-Feb-22 19:00N 37°43' E 023°44'4 0.1
2018-Feb-20 18:40N 37°39' E 023°44'2 8.5
2018-Feb-20 18:23N 37°41' E 023°42'3 8.8
2018-Feb-20 18:00N 37°44' E 023°40'4 8.9
2018-Feb-20 17:30N 37°48' E 023°38'5 9.0
2018-Feb-20 17:00N 37°52' E 023°36'4 8.8
2018-Feb-20 16:30N 37°56' E 023°35'4 7.0
2018-Feb-20 16:00N 37°60' E 023°33'3 6.3
2018-Feb-20 15:31N 38°02' E 023°35'0 0.1
2018-Feb-20 15:00N 38°02' E 023°35'0 0.0
2018-Feb-20 14:30N 38°02' E 023°35'0 0.0
2018-Feb-20 14:00N 38°02' E 023°35'0 0.0
2018-Feb-20 13:30N 38°02' E 023°35'0 0.0
2018-Feb-20 13:00N 38°02' E 023°35'0 0.0
2018-Feb-20 12:30N 38°02' E 023°35'0 0.0
2018-Feb-20 12:00N 38°02' E 023°35'0 0.0
2018-Feb-20 11:30N 38°02' E 023°35'0 0.0
2018-Feb-20 11:00N 38°02' E 023°35'0 0.0
2018-Feb-20 10:30N 38°02' E 023°35'0 0.0
2018-Feb-20 10:00N 38°02' E 023°35'0 0.0
2018-Feb-20 09:29N 38°02' E 023°35'0 0.0
2018-Feb-20 09:00N 38°02' E 023°35'0 0.0
2018-Feb-20 08:30N 38°02' E 023°35'0 0.0
2018-Feb-20 07:59N 38°02' E 023°35'0 0.0
2018-Feb-20 07:30N 38°02' E 023°35'0 0.0
2018-Feb-20 06:53N 38°02' E 023°35'0 0.0
2018-Feb-20 06:28N 38°02' E 023°35'0 0.0
2018-Feb-20 05:59N 38°02' E 023°35'0 0.0
2018-Feb-20 05:30N 38°02' E 023°35'0 0.0
2018-Feb-20 05:00N 38°02' E 023°35'0 0.0
2018-Feb-20 04:30N 38°02' E 023°35'0 0.0
2018-Feb-20 04:00N 38°02' E 023°35'0 0.0
2018-Feb-20 03:30N 38°02' E 023°35'0 0.0
2018-Feb-20 03:00N 38°02' E 023°35'0 0.0
2018-Feb-20 02:30N 38°02' E 023°35'0 0.0
2018-Feb-20 02:00N 38°02' E 023°35'0 0.0
2018-Feb-20 01:27N 38°02' E 023°35'0 0.0
2018-Feb-20 01:00N 38°02' E 023°35'0 0.0
2018-Feb-20 00:30N 38°02' E 023°35'0 0.0
2018-Feb-20 00:00N 38°02' E 023°35'0 0.0
2018-Feb-19 23:30N 38°02' E 023°35'0 0.0
2018-Feb-19 23:00N 38°02' E 023°35'0 0.0
2018-Feb-19 22:30N 38°02' E 023°35'0 0.0
2018-Feb-19 21:59N 38°02' E 023°35'0 0.0
2018-Feb-19 21:30N 38°02' E 023°35'0 0.0
2018-Feb-19 21:00N 38°02' E 023°35'0 0.0
2018-Feb-19 20:30N 38°02' E 023°35'0 0.0
2018-Feb-19 20:00N 38°02' E 023°35'0 0.0
2018-Feb-19 19:30N 38°02' E 023°35'0 0.2
2018-Feb-19 19:00N 38°02' E 023°35'4 7.1
2018-Feb-19 18:31N 38°01' E 023°31'5 9.7
2018-Feb-19 18:01N 37°59' E 023°25'3 6.7
2018-Feb-19 17:30N 37°57' E 023°23'5 9.9
2018-Feb-19 17:00N 37°56' E 023°17'5 9.9
2018-Feb-19 16:30N 37°55' E 023°10'510.1
2018-Feb-19 16:00N 37°54' E 023°04'5 7.5
2018-Feb-19 15:19N 37°57' E 022°58'2 5.1
2018-Feb-19 15:00N 37°58' E 022°57'4 8.6
2018-Feb-19 14:30N 37°59' E 022°52'510.1
2018-Feb-19 13:59N 38°02' E 022°46'  

Dump ship's entire track history